Time;durP1;ratioP1;P1;durP2;ratioP2;P2;SDS_P1;SDS_P2;PMS_P1;PMS_P2;Temp;Humidity;BMP_temperature;BMP_pressure;BME280_temperature;BME280_humidity;BME280_pressure;Samples;Min_cycle;Max_cycle;Signal;HPM_P1;HPM_P2
2024/01/23 00:00:50;;;;;;;;;;;;;;;-0.08;82.83;100281.50;4463991;32;33624;-85
2024/01/23 00:03:19;;;;;;;;;;;;;;;-0.22;82.53;100269.88;4468182;32;33039;-86
2024/01/23 00:05:51;;;;;;;;;;;;;;;0.12;81.82;100261.88;4465638;32;33409;-84
2024/01/23 00:08:20;;;;;;;;;;;;;;;-0.38;82.76;100265.00;4479092;32;33519;-87
2024/01/23 00:10:52;;;;;;;;;;;;;;;-0.28;83.84;100264.56;4479354;32;33382;-84
2024/01/23 00:13:21;;;;;;;;;;;;;;;-0.06;81.98;100267.13;4480585;32;33586;-84
2024/01/23 00:15:54;;;;;;;;;;;;;;;-0.40;82.37;100269.19;4480833;32;34503;-86
2024/01/23 00:18:23;;;;;;;;;;;;;;;-0.27;83.17;100263.75;4481123;32;34041;-84
2024/01/23 00:20:56;;;;;;;;;;;;;;;0.01;82.22;100275.91;4479222;32;34306;-83
2024/01/23 00:23:25;;;;;;;;;;;;;;;-0.43;84.04;100265.69;4479364;32;33682;-84
2024/01/23 00:25:55;;;;;;;;;;;;;;;-0.68;85.43;100265.50;4483621;32;34812;-84
2024/01/23 00:28:23;;;;;;;;;;;;;;;-0.39;83.65;100266.66;4480442;32;34930;-83
2024/01/23 00:30:58;;;;;;;;;;;;;;;-0.63;84.83;100246.16;4481505;32;34641;-85
2024/01/23 00:33:27;;;;;;;;;;;;;;;-0.96;86.55;100250.75;4478735;32;33433;-84
2024/01/23 00:35:58;;;;;;;;;;;;;;;-1.08;87.18;100243.47;4479541;32;34950;-84
2024/01/23 00:38:26;;;;;;;;;;;;;;;-0.31;83.45;100254.25;4483883;32;34950;-86
2024/01/23 00:40:55;;;;;;;;;;;;;;;-0.68;86.47;100258.75;4555680;26;33622;-84
2024/01/23 00:43:25;;;;;;;;;;;;;;;-0.27;83.02;100258.66;4472190;32;33195;-86
2024/01/23 00:45:57;;;;;;;;;;;;;;;-0.41;82.98;100275.06;4476336;32;34661;-84
2024/01/23 00:48:26;;;;;;;;;;;;;;;-0.31;83.48;100292.50;4483361;32;34336;-83
2024/01/23 00:50:57;;;;;;;;;;;;;;;0.39;80.22;100281.59;4528864;26;33537;-83
2024/01/23 00:53:48;;;;;;;;;;;;;;;0.91;78.83;100285.16;4497397;26;1150472;-85
2024/01/23 00:56:17;;;;;;;;;;;;;;;0.91;78.83;100285.16;4506724;31;33219;-85
2024/01/23 00:58:46;;;;;;;;;;;;;;;0.54;79.18;100297.47;4645571;26;34747;-85
2024/01/23 01:01:16;;;;;;;;;;;;;;;-0.04;80.36;100287.59;4511876;31;33961;-86
2024/01/23 01:03:45;;;;;;;;;;;;;;;0.18;80.28;100276.53;4509067;31;33707;-85
2024/01/23 01:06:19;;;;;;;;;;;;;;;0.60;78.49;100284.03;4602880;26;32795;-83
2024/01/23 01:08:52;;;;;;;;;;;;;;;-0.36;81.78;100273.56;4506989;31;33033;-85
2024/01/23 01:11:22;;;;;;;;;;;;;;;0.54;79.39;100271.06;4507776;31;35207;-85
2024/01/23 01:13:51;;;;;;;;;;;;;;;0.72;77.27;100273.41;4510894;31;33689;-85
2024/01/23 01:16:20;;;;;;;;;;;;;;;-0.05;80.53;100266.34;4499700;31;33431;-86
2024/01/23 01:18:50;;;;;;;;;;;;;;;-0.40;81.80;100264.94;4495648;31;34090;-87
2024/01/23 01:21:22;;;;;;;;;;;;;;;-0.13;82.39;100269.38;4490136;32;34262;-85
2024/01/23 01:23:52;;;;;;;;;;;;;;;0.08;80.34;100259.16;4575741;26;33972;-85
2024/01/23 01:26:28;;;;;;;;;;;;;;;0.25;80.05;100247.91;4446680;32;35039;-85
2024/01/23 01:29:00;;;;;;;;;;;;;;;0.39;79.90;100248.41;4575260;26;33730;-86
2024/01/23 01:31:29;;;;;;;;;;;;;;;0.78;76.71;100245.53;4469892;32;34552;-84
2024/01/23 01:33:58;;;;;;;;;;;;;;;0.66;77.47;100253.63;4467301;32;33283;-85
2024/01/23 01:36:33;;;;;;;;;;;;;;;0.84;77.27;100255.97;4480197;32;33390;-85
2024/01/23 01:39:04;;;;;;;;;;;;;;;0.82;75.97;100252.47;4474223;32;34963;-84
2024/01/23 01:41:33;;;;;;;;;;;;;;;1.27;74.24;100262.53;4476710;32;34076;-85
2024/01/23 01:44:02;;;;;;;;;;;;;;;0.66;76.40;100261.31;4476599;32;33406;-85
2024/01/23 01:46:34;;;;;;;;;;;;;;;0.51;77.28;100259.06;4477525;32;32902;-85
2024/01/23 01:49:09;;;;;;;;;;;;;;;1.13;75.63;100256.97;4457124;32;33054;-85
2024/01/23 01:51:38;;;;;;;;;;;;;;;1.34;74.46;100255.94;4471721;32;34233;-85
2024/01/23 01:54:11;;;;;;;;;;;;;;;1.21;74.42;100263.22;4478249;32;33714;-85
2024/01/23 01:56:40;;;;;;;;;;;;;;;0.91;75.49;100257.91;4474309;32;33200;-88
2024/01/23 01:59:13;;;;;;;;;;;;;;;1.19;74.74;100253.75;4463987;32;35281;-86
2024/01/23 02:01:42;;;;;;;;;;;;;;;1.17;73.89;100250.28;4459629;32;33009;-85
2024/01/23 02:04:11;;;;;;;;;;;;;;;0.60;77.75;100240.63;4465706;32;33790;-86
2024/01/23 02:06:40;;;;;;;;;;;;;;;0.99;75.75;100246.28;4463649;32;33140;-84
2024/01/23 02:09:12;;;;;;;;;;;;;;;1.34;74.12;100240.63;4449033;32;36476;-85
2024/01/23 02:11:57;;;;;;;;;;;;;;;1.42;72.89;100241.72;4468056;32;33441;-84
2024/01/23 02:14:26;;;;;;;;;;;;;;;0.76;75.96;100226.75;4462004;32;34455;-88
2024/01/23 02:16:59;;;;;;;;;;;;;;;1.13;75.08;100221.19;4460278;32;32299;-86
2024/01/23 02:19:29;;;;;;;;;;;;;;;1.02;75.12;100209.75;4463108;32;33943;-85
2024/01/23 02:21:59;;;;;;;;;;;;;;;0.59;76.87;100206.59;4465295;32;35108;-85
2024/01/23 02:24:30;;;;;;;;;;;;;;;1.08;75.30;100219.31;4468799;32;34574;-86
2024/01/23 02:27:00;;;;;;;;;;;;;;;1.62;72.99;100237.22;4450465;32;32845;-85
2024/01/23 02:29:30;;;;;;;;;;;;;;;1.53;73.48;100230.16;4447097;32;34093;-85
2024/01/23 02:32:03;;;;;;;;;;;;;;;1.20;75.64;100229.94;4463399;32;34292;-85
2024/01/23 02:34:31;;;;;;;;;;;;;;;0.85;75.60;100222.81;4468416;32;33902;-84
2024/01/23 02:37:03;;;;;;;;;;;;;;;0.64;76.25;100230.59;4452864;32;33886;-86
2024/01/23 02:39:33;;;;;;;;;;;;;;;1.27;74.78;100230.19;4458614;32;33093;-84
2024/01/23 02:42:03;;;;;;;;;;;;;;;1.21;74.50;100230.00;4466262;32;33667;-86
2024/01/23 02:44:32;;;;;;;;;;;;;;;0.78;76.30;100220.00;4463753;32;34065;-85
2024/01/23 02:47:07;;;;;;;;;;;;;;;0.54;77.89;100215.78;4464489;32;33703;-86
2024/01/23 02:49:36;;;;;;;;;;;;;;;1.10;75.26;100225.34;4448097;32;33674;-84
2024/01/23 02:52:05;;;;;;;;;;;;;;;0.94;75.96;100239.25;4459079;32;33918;-84
2024/01/23 02:54:38;;;;;;;;;;;;;;;1.11;75.72;100233.03;4464383;32;32951;-84
2024/01/23 02:57:09;;;;;;;;;;;;;;;1.52;73.81;100237.78;4463570;32;32883;-85
2024/01/23 02:59:38;;;;;;;;;;;;;;;1.57;74.14;100242.22;4461968;32;33421;-85
2024/01/23 03:02:13;;;;;;;;;;;;;;;1.94;71.93;100250.19;4456175;32;33768;-84
2024/01/23 03:04:42;;;;;;;;;;;;;;;2.21;69.86;100262.94;4464338;32;34054;-88
2024/01/23 03:07:13;;;;;;;;;;;;;;;1.66;71.99;100252.72;4462852;32;33149;-85
2024/01/23 03:09:43;;;;;;;;;;;;;;;0.94;75.04;100259.69;4468716;32;33641;-88
2024/01/23 03:12:15;;;;;;;;;;;;;;;1.05;75.74;100250.72;4463965;32;34076;-85
2024/01/23 03:14:44;;;;;;;;;;;;;;;0.92;75.78;100246.00;4462451;32;33930;-87
2024/01/23 03:17:15;;;;;;;;;;;;;;;1.52;74.03;100243.75;4469785;32;36133;-86
2024/01/23 03:19:49;;;;;;;;;;;;;;;1.18;74.82;100246.91;4484016;32;34024;-87
2024/01/23 03:22:19;;;;;;;;;;;;;;;1.05;75.16;100243.06;4468925;32;34803;-84
2024/01/23 03:24:49;;;;;;;;;;;;;;;1.14;75.42;100245.06;4468076;32;34189;-84
2024/01/23 03:27:17;;;;;;;;;;;;;;;1.23;75.37;100237.69;4463198;32;32515;-85
2024/01/23 03:29:46;;;;;;;;;;;;;;;1.32;75.52;100245.66;4463477;32;33735;-84
2024/01/23 03:32:16;;;;;;;;;;;;;;;1.26;75.10;100238.69;4468198;32;34252;-84
2024/01/23 03:34:49;;;;;;;;;;;;;;;1.58;74.17;100237.97;4466688;32;34069;-85
2024/01/23 03:37:18;;;;;;;;;;;;;;;1.89;72.57;100265.41;4463616;32;32766;-87
2024/01/23 03:39:49;;;;;;;;;;;;;;;1.60;73.61;100247.44;4463667;32;34759;-84
2024/01/23 03:42:19;;;;;;;;;;;;;;;1.87;73.05;100237.19;4468708;32;34069;-85
2024/01/23 03:44:49;;;;;;;;;;;;;;;2.03;72.56;100232.53;4468076;32;33061;-85
2024/01/23 03:47:18;;;;;;;;;;;;;;;1.84;72.31;100231.13;4463160;32;33040;-87
2024/01/23 03:49:49;;;;;;;;;;;;;;;2.01;71.64;100214.59;4465839;32;34405;-88
2024/01/23 03:52:17;;;;;;;;;;;;;;;2.01;71.67;100235.06;4464362;32;33432;-84
2024/01/23 03:54:53;;;;;;;;;;;;;;;1.99;72.20;100231.59;4468153;32;34138;-87
2024/01/23 03:57:22;;;;;;;;;;;;;;;1.88;72.21;100233.78;4463171;32;33303;-85
2024/01/23 03:59:55;;;;;;;;;;;;;;;2.10;72.02;100240.47;4463249;32;34873;-85
2024/01/23 04:02:26;;;;;;;;;;;;;;;2.09;72.03;100243.81;4463295;32;34081;-85
2024/01/23 04:04:56;;;;;;;;;;;;;;;2.23;71.46;100253.63;4463492;32;34629;-86
2024/01/23 04:07:26;;;;;;;;;;;;;;;2.22;71.39;100250.16;4468484;32;33173;-84
2024/01/23 04:09:56;;;;;;;;;;;;;;;2.37;70.50;100265.13;4464529;32;33723;-84
2024/01/23 04:12:29;;;;;;;;;;;;;;;2.18;71.37;100261.16;4465884;32;33628;-86
2024/01/23 04:14:59;;;;;;;;;;;;;;;1.97;72.15;100250.28;4556617;26;33954;31
2024/01/23 04:17:29;;;;;;;;;;;;;;;2.04;71.67;100252.19;4435761;32;32606;-85
2024/01/23 04:20:02;;;;;;;;;;;;;;;2.18;71.00;100263.72;4431137;32;34973;-89
2024/01/23 04:22:31;;;;;;;;;;;;;;;2.17;71.16;100255.97;4416610;32;33199;-85
2024/01/23 04:25:21;;;;;;;;;;;;;;;2.28;70.52;100264.84;4474784;27;19989;-90
2024/01/23 04:27:53;;;;;;;;;;;;;;;2.17;70.81;100266.22;4453084;27;33446;-84
2024/01/23 04:30:22;;;;;;;;;;;;;;;2.41;69.87;100276.31;4436696;32;34047;-87
2024/01/23 04:32:53;;;;;;;;;;;;;;;2.33;69.87;100279.53;4545594;26;35274;-87
2024/01/23 04:35:22;;;;;;;;;;;;;;;2.43;69.53;100269.56;4433889;32;33230;-87
2024/01/23 04:37:59;;;;;;;;;;;;;;;2.34;69.38;100273.59;4463572;26;33507;31
2024/01/23 04:40:34;;;;;;;;;;;;;;;2.26;69.63;100269.06;4439927;26;32879;-86
2024/01/23 04:43:03;;;;;;;;;;;;;;;2.20;70.21;100272.31;4398685;32;34095;-87
2024/01/23 04:45:35;;;;;;;;;;;;;;;2.22;70.25;100272.34;4386535;32;33713;-86
2024/01/23 04:48:04;;;;;;;;;;;;;;;2.14;70.32;100270.41;4387513;32;33421;-86
2024/01/23 04:50:33;;;;;;;;;;;;;;;1.93;71.30;100280.00;4513275;26;34160;-85
2024/01/23 04:53:03;;;;;;;;;;;;;;;2.29;70.66;100275.13;4406043;32;33944;-87
2024/01/23 04:55:32;;;;;;;;;;;;;;;2.20;70.35;100279.09;4404862;32;34276;-85
2024/01/23 04:58:05;;;;;;;;;;;;;;;2.32;70.30;100289.69;4401233;32;33093;-85
2024/01/23 05:00:34;;;;;;;;;;;;;;;2.28;70.19;100291.31;4402744;32;34085;-84
2024/01/23 05:03:05;;;;;;;;;;;;;;;2.42;69.29;100308.81;4401308;32;34549;-87
2024/01/23 05:05:37;;;;;;;;;;;;;;;2.23;70.04;100313.34;4406337;32;34060;-85
2024/01/23 05:08:06;;;;;;;;;;;;;;;2.37;69.41;100310.31;4530930;26;33659;-87
2024/01/23 05:10:34;;;;;;;;;;;;;;;2.15;70.13;100304.59;4431699;32;34672;-86
2024/01/23 05:13:07;;;;;;;;;;;;;;;1.94;71.02;100302.22;4431960;32;34480;-85
2024/01/23 05:15:38;;;;;;;;;;;;;;;2.13;70.37;100301.97;4435803;32;33268;-88
2024/01/23 05:18:07;;;;;;;;;;;;;;;2.02;70.27;100298.19;4436604;32;33096;-84
2024/01/23 05:20:38;;;;;;;;;;;;;;;2.05;70.40;100298.28;4431718;32;33490;-85
2024/01/23 05:23:06;;;;;;;;;;;;;;;2.06;70.68;100296.62;4431799;32;33948;-88
2024/01/23 05:25:35;;;;;;;;;;;;;;;2.09;70.11;100295.00;4433163;32;33733;-84
2024/01/23 05:28:08;;;;;;;;;;;;;;;2.12;70.40;100292.53;4427595;32;32645;-85
2024/01/23 05:33:14;;;;;;;;;;;;;;;2.02;70.31;100293.09;4424768;32;33895;-87
2024/01/23 05:35:46;;;;;;;;;;;;;;;2.00;70.14;100304.94;4416468;32;33870;-84
2024/01/23 05:38:15;;;;;;;;;;;;;;;2.24;69.11;100309.97;4416207;32;33330;-88
2024/01/23 05:40:52;;;;;;;;;;;;;;;1.96;69.40;100310.81;4495901;26;34367;31
2024/01/23 05:43:23;;;;;;;;;;;;;;;1.98;69.68;100321.97;4415141;32;34441;-87
2024/01/23 05:45:54;;;;;;;;;;;;;;;1.97;69.55;100319.34;4417261;32;33525;-84
2024/01/23 05:48:23;;;;;;;;;;;;;;;2.22;68.68;100313.31;4411691;32;33782;-85
2024/01/23 05:50:52;;;;;;;;;;;;;;;2.15;68.84;100312.25;4421546;32;34834;-87
2024/01/23 05:53:27;;;;;;;;;;;;;;;1.81;70.04;100308.66;4418837;32;33678;-88
2024/01/23 05:56:05;;;;;;;;;;;;;;;1.97;69.21;100322.78;4416780;32;32449;-85
2024/01/23 05:58:39;;;;;;;;;;;;;;;1.95;69.60;100334.66;4419092;32;33191;-86
2024/01/23 06:01:08;;;;;;;;;;;;;;;2.25;68.60;100339.00;4413534;32;33658;-85
2024/01/23 06:03:40;;;;;;;;;;;;;;;2.18;68.64;100340.50;4418297;32;33888;-85
2024/01/23 06:06:09;;;;;;;;;;;;;;;1.97;69.51;100358.59;4412557;32;34448;-86
2024/01/23 06:08:42;;;;;;;;;;;;;;;1.90;70.16;100359.22;4414313;32;33101;-85
2024/01/23 06:11:12;;;;;;;;;;;;;;;2.01;69.90;100362.16;4406711;32;32922;-85
2024/01/23 06:13:45;;;;;;;;;;;;;;;2.00;69.93;100375.75;4416199;32;34673;-85
2024/01/23 06:16:14;;;;;;;;;;;;;;;2.29;69.07;100381.78;4412770;32;34281;-85
2024/01/23 06:18:45;;;;;;;;;;;;;;;2.12;69.37;100377.00;4413681;32;33040;-85
2024/01/23 06:21:14;;;;;;;;;;;;;;;1.92;70.45;100380.63;4406355;32;34371;-85
2024/01/23 06:23:43;;;;;;;;;;;;;;;1.75;71.22;100377.50;4416107;32;34479;-88
2024/01/23 06:26:12;;;;;;;;;;;;;;;2.05;69.77;100382.75;4421335;32;33777;-86
2024/01/23 06:28:48;;;;;;;;;;;;;;;1.90;70.66;100379.69;4416962;32;33726;-88
2024/01/23 06:31:25;;;;;;;;;;;;;;;2.09;69.97;100382.03;4411576;32;33851;-87
2024/01/23 06:33:55;;;;;;;;;;;;;;;1.98;69.89;100380.84;4413875;32;33872;-83
2024/01/23 06:36:32;;;;;;;;;;;;;;;1.93;70.35;100387.47;4415413;32;36213;-86
2024/01/23 06:39:00;;;;;;;;;;;;;;;1.88;70.68;100387.31;4419791;32;33710;-86
2024/01/23 06:41:30;;;;;;;;;;;;;;;1.93;70.03;100395.12;4421880;32;33844;-85
2024/01/23 06:44:00;;;;;;;;;;;;;;;1.80;71.02;100398.12;4420955;32;33835;-85
2024/01/23 06:46:34;;;;;;;;;;;;;;;2.08;69.66;100399.91;4417917;32;34313;-86
2024/01/23 06:49:02;;;;;;;;;;;;;;;1.96;70.01;100402.03;4421551;32;33881;-85
2024/01/23 06:51:32;;;;;;;;;;;;;;;1.92;70.52;100407.06;4430248;32;34522;-85
2024/01/23 06:54:07;;;;;;;;;;;;;;;1.99;70.34;100417.53;4427232;32;34687;-89
2024/01/23 06:56:38;;;;;;;;;;;;;;;1.98;70.48;100410.66;4432378;32;33989;-83
2024/01/23 06:59:06;;;;;;;;;;;;;;;2.26;69.67;100414.97;4434380;32;32718;-87
2024/01/23 07:01:36;;;;;;;;;;;;;;;2.01;71.15;100418.44;4437828;32;34846;-84
2024/01/23 07:04:05;;;;;;;;;;;;;;;2.04;70.80;100428.78;4433194;32;36314;-88
2024/01/23 07:06:35;;;;;;;;;;;;;;;2.22;70.59;100434.47;4432585;32;33496;-84
2024/01/23 07:09:06;;;;;;;;;;;;;;;2.06;71.22;100452.75;4432761;32;32996;-85
2024/01/23 07:11:42;;;;;;;;;;;;;;;2.44;69.15;100464.22;4432591;32;33980;-85
2024/01/23 07:14:11;;;;;;;;;;;;;;;2.00;71.54;100466.19;4437728;32;34094;-87
2024/01/23 07:16:44;;;;;;;;;;;;;;;2.26;70.50;100466.19;4432679;32;33739;-85
2024/01/23 07:19:13;;;;;;;;;;;;;;;2.38;69.74;100460.59;4433333;32;34599;-88
2024/01/23 07:21:51;;;;;;;;;;;;;;;2.56;68.55;100467.19;4439669;32;34422;-86
2024/01/23 07:24:20;;;;;;;;;;;;;;;2.51;68.92;100461.03;4447816;32;34156;-86
2024/01/23 07:26:53;;;;;;;;;;;;;;;2.50;68.77;100466.09;4447889;32;33886;-83
2024/01/23 07:29:28;;;;;;;;;;;;;;;2.43;69.05;100462.47;4432987;32;33808;-87
2024/01/23 07:31:58;;;;;;;;;;;;;;;2.38;69.38;100464.03;4431431;32;34485;-85
2024/01/23 07:34:27;;;;;;;;;;;;;;;2.24;70.12;100462.69;4426917;32;34052;-85
2024/01/23 07:36:56;;;;;;;;;;;;;;;2.31;70.30;100454.41;4437201;32;33680;-85
2024/01/23 07:39:28;;;;;;;;;;;;;;;2.52;69.53;100447.41;4432829;32;33936;-88
2024/01/23 07:41:58;;;;;;;;;;;;;;;2.56;69.45;100454.37;4434500;32;34845;-84
2024/01/23 07:44:27;;;;;;;;;;;;;;;2.69;68.87;100447.94;4417190;32;34521;-85
2024/01/23 07:46:59;;;;;;;;;;;;;;;2.51;69.21;100445.69;4425348;32;33390;-85
2024/01/23 07:49:28;;;;;;;;;;;;;;;2.72;68.62;100454.84;4435018;32;32032;-86
2024/01/23 07:52:01;;;;;;;;;;;;;;;2.34;70.03;100454.50;4434164;32;33629;-85
2024/01/23 07:54:38;;;;;;;;;;;;;;;2.35;70.15;100448.56;4432687;32;33662;-85
2024/01/23 07:57:07;;;;;;;;;;;;;;;2.35;70.13;100446.00;4434132;32;34143;-84
2024/01/23 07:59:37;;;;;;;;;;;;;;;2.16;70.66;100436.00;4427967;32;33369;-85
2024/01/23 08:02:07;;;;;;;;;;;;;;;2.14;71.41;100447.03;4421715;32;34458;-86
2024/01/23 08:04:37;;;;;;;;;;;;;;;2.04;71.66;100450.13;4423774;32;33450;-87
2024/01/23 08:07:07;;;;;;;;;;;;;;;2.39;71.05;100452.94;4431462;32;34006;-85
2024/01/23 08:09:39;;;;;;;;;;;;;;;2.46;71.04;100470.25;4431230;32;33028;-83
2024/01/23 08:12:08;;;;;;;;;;;;;;;2.60;70.09;100462.16;4435807;32;34226;-87
2024/01/23 08:14:50;;;;;;;;;;;;;;;2.49;70.89;100461.78;4423168;32;34257;-86
2024/01/23 08:17:23;;;;;;;;;;;;;;;2.53;71.37;100473.88;4416728;32;33375;-86
2024/01/23 08:19:52;;;;;;;;;;;;;;;2.49;71.60;100479.72;4418320;32;33366;-87
2024/01/23 08:22:23;;;;;;;;;;;;;;;2.91;69.75;100487.87;4430492;32;33625;-86
2024/01/23 08:24:55;;;;;;;;;;;;;;;3.05;68.79;100498.56;4437411;32;34662;-88
2024/01/23 08:27:25;;;;;;;;;;;;;;;2.82;70.16;100500.41;4432867;32;33975;-84
2024/01/23 08:29:54;;;;;;;;;;;;;;;2.97;68.33;100494.87;4436978;32;33037;-88
2024/01/23 08:32:27;;;;;;;;;;;;;;;2.92;68.58;100492.22;4432391;32;33923;-85
2024/01/23 08:34:55;;;;;;;;;;;;;;;2.63;69.86;100480.16;4437137;32;34088;-85
2024/01/23 08:37:28;;;;;;;;;;;;;;;2.90;68.42;100492.94;4436985;32;33531;-86
2024/01/23 08:39:57;;;;;;;;;;;;;;;2.91;68.52;100495.56;4434762;32;33417;-87
2024/01/23 08:42:27;;;;;;;;;;;;;;;3.02;68.18;100507.84;4431283;32;34238;-85
2024/01/23 08:44:57;;;;;;;;;;;;;;;2.88;68.60;100502.31;4432261;32;33936;-85
2024/01/23 08:47:29;;;;;;;;;;;;;;;2.75;68.92;100504.50;4436644;32;34545;-85
2024/01/23 08:49:58;;;;;;;;;;;;;;;2.52;69.85;100508.88;4432464;32;32907;-87
2024/01/23 08:52:29;;;;;;;;;;;;;;;2.40;70.47;100516.16;4431756;32;33887;-87
2024/01/23 08:54:58;;;;;;;;;;;;;;;2.48;70.26;100517.25;4431018;32;34018;-85
2024/01/23 08:57:34;;;;;;;;;;;;;;;2.65;69.51;100516.94;4421072;32;34327;-88
2024/01/23 09:00:04;;;;;;;;;;;;;;;2.69;70.07;100518.78;4421544;32;33454;-86
2024/01/23 09:02:37;;;;;;;;;;;;;;;2.78;69.94;100524.22;4416724;32;33190;-84
2024/01/23 09:05:06;;;;;;;;;;;;;;;2.77;70.46;100540.41;4417193;32;33906;-86
2024/01/23 09:07:36;;;;;;;;;;;;;;;2.91;70.60;100533.16;4417677;32;33825;-84
2024/01/23 09:10:05;;;;;;;;;;;;;;;3.10;70.24;100522.63;4424144;32;33541;-86
2024/01/23 09:12:35;;;;;;;;;;;;;;;3.34;68.74;100522.50;4434917;32;33801;-84
2024/01/23 09:15:09;;;;;;;;;;;;;;;3.45;68.00;100519.38;4433269;32;33920;-85
2024/01/23 09:17:40;;;;;;;;;;;;;;;3.50;67.59;100507.53;4434474;32;33484;-85
2024/01/23 09:20:10;;;;;;;;;;;;;;;3.69;66.78;100522.63;4437216;32;33825;-86
2024/01/23 09:22:42;;;;;;;;;;;;;;;3.59;66.15;100515.50;4437843;32;34119;-86
2024/01/23 09:25:11;;;;;;;;;;;;;;;3.62;66.24;100521.63;4432696;32;35059;-88
2024/01/23 09:27:43;;;;;;;;;;;;;;;3.71;65.77;100532.94;4433805;32;34051;-85
2024/01/23 09:30:20;;;;;;;;;;;;;;;3.80;65.61;100540.91;4433165;32;33574;-86
2024/01/23 09:33:00;;;;;;;;;;;;;;;3.72;66.13;100538.13;4426861;32;34797;-85
2024/01/23 09:35:36;;;;;;;;;;;;;;;3.57;66.87;100535.13;4435551;32;34363;-85
2024/01/23 09:38:08;;;;;;;;;;;;;;;3.44;67.84;100536.47;4432822;32;33636;-87
2024/01/23 09:40:38;;;;;;;;;;;;;;;3.66;67.96;100537.94;4427424;32;33041;-88
2024/01/23 09:43:08;;;;;;;;;;;;;;;3.69;67.29;100538.03;4428596;32;34343;-84
2024/01/23 09:45:37;;;;;;;;;;;;;;;3.81;66.47;100532.37;4437242;32;34629;-85
2024/01/23 09:48:13;;;;;;;;;;;;;;;3.57;67.63;100524.84;4430271;32;34389;-87
2024/01/23 09:50:42;;;;;;;;;;;;;;;3.59;67.33;100536.03;4432798;32;32738;-85
2024/01/23 09:53:12;;;;;;;;;;;;;;;3.39;68.69;100550.84;4433459;32;33558;-85
2024/01/23 09:55:41;;;;;;;;;;;;;;;3.45;68.17;100529.63;4433366;32;34693;-87
2024/01/23 09:58:11;;;;;;;;;;;;;;;3.40;68.77;100529.50;4421826;32;33115;-85
2024/01/23 10:00:40;;;;;;;;;;;;;;;3.63;67.58;100528.47;4437463;32;33860;-85
2024/01/23 10:03:10;;;;;;;;;;;;;;;3.70;67.79;100531.22;4422862;32;34255;-86
2024/01/23 10:05:41;;;;;;;;;;;;;;;3.68;67.87;100533.72;4418168;32;33057;-86
2024/01/23 10:08:13;;;;;;;;;;;;;;;3.67;68.34;100533.69;4436986;32;33708;-87
2024/01/23 10:10:42;;;;;;;;;;;;;;;3.63;68.35;100545.56;4437396;32;33087;-88
2024/01/23 10:13:12;;;;;;;;;;;;;;;3.85;67.36;100536.78;4432328;32;33807;-87
2024/01/23 10:15:43;;;;;;;;;;;;;;;3.92;66.94;100530.12;4432877;32;35275;-86
2024/01/23 10:18:21;;;;;;;;;;;;;;;3.72;67.53;100522.75;4433673;32;33574;-86
2024/01/23 10:20:57;;;;;;;;;;;;;;;3.90;67.34;100526.62;4437743;32;33242;-87
2024/01/23 10:23:27;;;;;;;;;;;;;;;4.03;66.96;100529.56;4432543;32;34533;-88
2024/01/23 10:25:59;;;;;;;;;;;;;;;4.11;66.57;100527.22;4432195;32;34529;-85
2024/01/23 10:28:29;;;;;;;;;;;;;;;4.26;66.44;100530.16;4432768;32;33925;-87
2024/01/23 10:30:58;;;;;;;;;;;;;;;4.24;66.36;100534.38;4432698;32;33831;-85
2024/01/23 10:33:37;;;;;;;;;;;;;;;3.85;68.23;100537.63;4436943;32;34089;-85
2024/01/23 10:36:08;;;;;;;;;;;;;;;3.97;68.79;100536.25;4432563;32;34457;-85
2024/01/23 10:38:37;;;;;;;;;;;;;;;4.33;66.92;100530.34;4433006;32;34155;-87
2024/01/23 10:41:07;;;;;;;;;;;;;;;4.22;67.56;100525.78;4432082;32;34248;-85
2024/01/23 10:43:35;;;;;;;;;;;;;;;4.66;66.36;100518.31;4428690;32;33858;-86
2024/01/23 10:46:05;;;;;;;;;;;;;;;4.78;65.71;100511.72;4436817;32;33799;-87
2024/01/23 10:48:36;;;;;;;;;;;;;;;4.45;67.12;100503.25;4430872;32;33255;-86
2024/01/23 10:51:16;;;;;;;;;;;;;;;4.99;65.28;100501.06;4436551;32;33109;-88
2024/01/23 10:53:46;;;;;;;;;;;;;;;4.65;66.69;100502.84;4431854;32;34866;-87
2024/01/23 10:56:20;;;;;;;;;;;;;;;4.76;66.95;100506.56;4437001;32;34571;-85
2024/01/23 10:58:56;;;;;;;;;;;;;;;5.28;65.42;100501.69;4428560;32;34374;-86
2024/01/23 11:01:26;;;;;;;;;;;;;;;4.51;67.37;100509.38;4433332;32;33363;-85
2024/01/23 11:03:56;;;;;;;;;;;;;;;5.26;65.38;100504.22;4432134;32;33167;-87
2024/01/23 11:06:26;;;;;;;;;;;;;;;5.21;65.39;100502.41;4431661;32;34489;-85
2024/01/23 11:08:58;;;;;;;;;;;;;;;5.16;65.82;100501.44;4436467;32;34534;-85
2024/01/23 11:11:28;;;;;;;;;;;;;;;5.41;64.95;100497.66;4433691;32;32723;-85
2024/01/23 11:14:13;;;;;;;;;;;;;;;5.39;65.20;100492.50;4431348;32;33767;-86
2024/01/23 11:17:06;;;;;;;;;;;;;;;5.56;64.42;100488.56;4431615;32;33739;-85
2024/01/23 11:19:38;;;;;;;;;;;;;;;5.22;65.92;100492.16;4431793;32;34187;-84
2024/01/23 11:22:07;;;;;;;;;;;;;;;5.35;66.08;100495.84;4436742;32;32789;-85
2024/01/23 11:24:48;;;;;;;;;;;;;;;5.69;64.84;100481.94;4422026;32;33197;-85
2024/01/23 11:27:30;;;;;;;;;;;;;;;5.54;65.21;100482.53;4431540;32;33577;-87
2024/01/23 11:30:01;;;;;;;;;;;;;;;5.89;64.33;100484.87;4432416;32;35226;-86
2024/01/23 11:32:31;;;;;;;;;;;;;;;6.01;63.82;100483.41;4417987;32;32531;-86
2024/01/23 11:35:02;;;;;;;;;;;;;;;5.70;65.11;100469.94;4434297;32;33671;-87
2024/01/23 11:37:42;;;;;;;;;;;;;;;5.87;64.86;100460.84;4432420;32;33816;-87
2024/01/23 11:40:35;;;;;;;;;;;;;;;6.23;63.73;100452.03;4432341;32;33714;-86
2024/01/23 11:43:07;;;;;;;;;;;;;;;6.19;64.08;100453.69;4421558;32;33094;-86
2024/01/23 11:45:37;;;;;;;;;;;;;;;6.47;63.76;100461.88;4428951;32;33963;-84
2024/01/23 11:48:08;;;;;;;;;;;;;;;6.71;62.63;100471.69;4434065;32;33281;-83
2024/01/23 11:50:41;;;;;;;;;;;;;;;6.70;62.70;100462.25;4436299;32;34571;-82
2024/01/23 11:53:12;;;;;;;;;;;;;;;6.73;62.76;100471.72;4432263;32;33198;-83
2024/01/23 11:55:42;;;;;;;;;;;;;;;6.70;62.45;100469.12;4427534;32;35025;-83
2024/01/23 11:58:11;;;;;;;;;;;;;;;6.72;62.75;100477.75;4432064;32;34082;-84
2024/01/23 12:00:46;;;;;;;;;;;;;;;6.71;62.57;100470.84;4436214;32;33495;-83
2024/01/23 12:03:20;;;;;;;;;;;;;;;6.68;62.63;100469.06;4422304;32;32629;-85
2024/01/23 12:05:54;;;;;;;;;;;;;;;6.41;63.99;100466.94;4429768;32;34365;-83
2024/01/23 12:08:26;;;;;;;;;;;;;;;6.70;63.47;100475.13;4428902;32;33688;-83
2024/01/23 12:10:56;;;;;;;;;;;;;;;6.68;64.13;100476.81;4431183;32;34596;-82
2024/01/23 12:13:26;;;;;;;;;;;;;;;7.01;63.59;100471.28;4435675;32;35066;-82
2024/01/23 12:15:54;;;;;;;;;;;;;;;7.16;63.46;100465.47;4416284;32;33722;-83
2024/01/23 12:18:30;;;;;;;;;;;;;;;7.28;63.20;100484.53;4420417;32;34912;-85
2024/01/23 12:21:00;;;;;;;;;;;;;;;7.35;62.86;100487.22;4430709;32;34208;-83
2024/01/23 12:23:29;;;;;;;;;;;;;;;7.25;62.75;100477.63;4431901;32;34131;-85
2024/01/23 12:25:59;;;;;;;;;;;;;;;7.25;62.72;100482.78;4435695;32;33835;-85
2024/01/23 12:28:30;;;;;;;;;;;;;;;7.26;63.12;100477.63;4431115;32;34635;-86
2024/01/23 12:30:58;;;;;;;;;;;;;;;7.18;63.23;100481.84;4435039;32;33499;-87
2024/01/23 12:33:30;;;;;;;;;;;;;;;7.31;63.24;100482.84;4431195;32;33812;-87
2024/01/23 12:36:03;;;;;;;;;;;;;;;7.46;63.13;100495.06;4430357;32;33374;-86
2024/01/23 12:38:32;;;;;;;;;;;;;;;7.50;62.74;100496.84;4434189;32;36117;-86
2024/01/23 12:41:03;;;;;;;;;;;;;;;7.53;62.78;100490.88;4428037;32;34324;-87
2024/01/23 12:43:37;;;;;;;;;;;;;;;7.75;62.11;100498.00;4428810;32;34248;-87
2024/01/23 12:46:05;;;;;;;;;;;;;;;7.69;62.22;100503.97;4430733;32;33677;-87
2024/01/23 12:48:36;;;;;;;;;;;;;;;7.79;61.90;100509.25;4435476;32;33446;-86
2024/01/23 12:51:07;;;;;;;;;;;;;;;7.86;61.58;100509.31;4431961;32;34121;-87
2024/01/23 12:53:37;;;;;;;;;;;;;;;7.72;61.91;100512.59;4431817;32;32994;-86
2024/01/23 12:56:07;;;;;;;;;;;;;;;7.69;61.95;100518.59;4430650;32;33628;-88
2024/01/23 12:58:41;;;;;;;;;;;;;;;7.44;62.65;100515.72;4435266;32;34611;-86
2024/01/23 13:01:10;;;;;;;;;;;;;;;7.35;63.00;100507.84;4431957;32;34450;-87
2024/01/23 13:03:42;;;;;;;;;;;;;;;7.34;63.01;100528.47;4424161;32;32726;-87
2024/01/23 13:06:13;;;;;;;;;;;;;;;7.45;62.99;100520.03;4427525;32;33784;-88
2024/01/23 13:08:44;;;;;;;;;;;;;;;7.57;62.65;100515.88;4434475;32;34714;-88